sensor_id;sensor_type;location;lat;lon;timestamp;P1;durP1;ratioP1;P2;durP2;ratioP2
12956;SDS011;6543;48.836;10.092;2023-08-08T00:00:39;6.63;;;1.90;;
12956;SDS011;6543;48.836;10.092;2023-08-08T00:03:07;4.30;;;2.07;;
12956;SDS011;6543;48.836;10.092;2023-08-08T00:05:34;5.37;;;2.50;;
12956;SDS011;6543;48.836;10.092;2023-08-08T00:08:02;3.33;;;2.40;;
12956;SDS011;6543;48.836;10.092;2023-08-08T00:10:29;4.63;;;2.10;;
12956;SDS011;6543;48.836;10.092;2023-08-08T00:12:56;5.47;;;2.60;;
12956;SDS011;6543;48.836;10.092;2023-08-08T00:15:23;5.67;;;2.70;;
12956;SDS011;6543;48.836;10.092;2023-08-08T00:17:50;3.43;;;2.40;;
12956;SDS011;6543;48.836;10.092;2023-08-08T00:20:17;4.03;;;2.60;;
12956;SDS011;6543;48.836;10.092;2023-08-08T00:22:43;4.90;;;2.73;;
12956;SDS011;6543;48.836;10.092;2023-08-08T00:25:12;2.80;;;2.37;;
12956;SDS011;6543;48.836;10.092;2023-08-08T00:27:38;4.43;;;1.97;;
12956;SDS011;6543;48.836;10.092;2023-08-08T00:30:09;3.20;;;2.17;;
12956;SDS011;6543;48.836;10.092;2023-08-08T00:32:37;3.17;;;2.20;;
12956;SDS011;6543;48.836;10.092;2023-08-08T00:35:04;4.20;;;2.50;;
12956;SDS011;6543;48.836;10.092;2023-08-08T00:37:31;3.83;;;2.30;;
12956;SDS011;6543;48.836;10.092;2023-08-08T00:39:58;3.20;;;2.10;;
12956;SDS011;6543;48.836;10.092;2023-08-08T00:42:26;3.10;;;1.67;;
12956;SDS011;6543;48.836;10.092;2023-08-08T00:44:53;2.87;;;2.17;;
12956;SDS011;6543;48.836;10.092;2023-08-08T00:47:26;1.70;;;1.60;;
12956;SDS011;6543;48.836;10.092;2023-08-08T00:49:53;2.67;;;1.70;;
12956;SDS011;6543;48.836;10.092;2023-08-08T00:52:21;1.80;;;1.63;;
12956;SDS011;6543;48.836;10.092;2023-08-08T00:54:47;1.60;;;1.43;;
12956;SDS011;6543;48.836;10.092;2023-08-08T00:57:15;3.80;;;1.60;;
12956;SDS011;6543;48.836;10.092;2023-08-08T00:59:43;1.60;;;1.40;;
12956;SDS011;6543;48.836;10.092;2023-08-08T01:02:10;4.43;;;1.60;;
12956;SDS011;6543;48.836;10.092;2023-08-08T01:04:37;3.30;;;1.50;;
12956;SDS011;6543;48.836;10.092;2023-08-08T01:07:06;10.33;;;1.70;;
12956;SDS011;6543;48.836;10.092;2023-08-08T01:09:39;4.10;;;2.00;;
12956;SDS011;6543;48.836;10.092;2023-08-08T01:12:11;3.57;;;2.30;;
12956;SDS011;6543;48.836;10.092;2023-08-08T01:14:40;5.07;;;2.63;;
12956;SDS011;6543;48.836;10.092;2023-08-08T01:17:10;3.50;;;2.47;;
12956;SDS011;6543;48.836;10.092;2023-08-08T01:19:38;6.67;;;2.33;;
12956;SDS011;6543;48.836;10.092;2023-08-08T01:22:07;8.70;;;3.03;;
12956;SDS011;6543;48.836;10.092;2023-08-08T01:24:41;4.33;;;3.33;;
12956;SDS011;6543;48.836;10.092;2023-08-08T01:27:09;4.37;;;2.53;;
12956;SDS011;6543;48.836;10.092;2023-08-08T01:29:37;1.93;;;1.77;;
12956;SDS011;6543;48.836;10.092;2023-08-08T01:32:04;1.60;;;1.50;;
12956;SDS011;6543;48.836;10.092;2023-08-08T01:34:31;3.10;;;1.80;;
12956;SDS011;6543;48.836;10.092;2023-08-08T01:36:59;2.30;;;1.67;;
12956;SDS011;6543;48.836;10.092;2023-08-08T01:39:33;3.20;;;1.97;;
12956;SDS011;6543;48.836;10.092;2023-08-08T01:42:02;3.73;;;1.80;;
12956;SDS011;6543;48.836;10.092;2023-08-08T01:44:31;4.83;;;1.73;;
12956;SDS011;6543;48.836;10.092;2023-08-08T01:46:57;5.00;;;2.67;;
12956;SDS011;6543;48.836;10.092;2023-08-08T01:49:25;5.70;;;3.33;;
12956;SDS011;6543;48.836;10.092;2023-08-08T01:51:51;3.97;;;2.47;;
12956;SDS011;6543;48.836;10.092;2023-08-08T01:54:18;6.33;;;3.17;;
12956;SDS011;6543;48.836;10.092;2023-08-08T01:56:45;3.70;;;2.17;;
12956;SDS011;6543;48.836;10.092;2023-08-08T01:59:14;2.37;;;2.17;;
12956;SDS011;6543;48.836;10.092;2023-08-08T02:01:40;4.83;;;2.13;;
12956;SDS011;6543;48.836;10.092;2023-08-08T02:04:07;7.73;;;3.20;;
12956;SDS011;6543;48.836;10.092;2023-08-08T02:06:34;3.90;;;3.40;;
12956;SDS011;6543;48.836;10.092;2023-08-08T02:09:01;9.20;;;2.50;;
12956;SDS011;6543;48.836;10.092;2023-08-08T02:11:28;5.63;;;2.57;;
12956;SDS011;6543;48.836;10.092;2023-08-08T02:13:54;6.53;;;2.60;;
12956;SDS011;6543;48.836;10.092;2023-08-08T02:16:23;2.40;;;2.20;;
12956;SDS011;6543;48.836;10.092;2023-08-08T02:18:49;3.57;;;2.00;;
12956;SDS011;6543;48.836;10.092;2023-08-08T02:21:16;7.03;;;2.50;;
12956;SDS011;6543;48.836;10.092;2023-08-08T02:23:43;2.20;;;1.87;;
12956;SDS011;6543;48.836;10.092;2023-08-08T02:26:10;3.57;;;2.13;;
12956;SDS011;6543;48.836;10.092;2023-08-08T02:28:37;4.27;;;2.50;;
12956;SDS011;6543;48.836;10.092;2023-08-08T02:31:04;4.00;;;3.07;;
12956;SDS011;6543;48.836;10.092;2023-08-08T02:33:32;7.93;;;3.50;;
12956;SDS011;6543;48.836;10.092;2023-08-08T02:35:58;8.03;;;4.03;;
12956;SDS011;6543;48.836;10.092;2023-08-08T02:38:25;10.67;;;4.50;;
12956;SDS011;6543;48.836;10.092;2023-08-08T02:40:52;5.30;;;3.70;;
12956;SDS011;6543;48.836;10.092;2023-08-08T02:43:19;7.17;;;3.80;;
12956;SDS011;6543;48.836;10.092;2023-08-08T02:45:46;4.30;;;2.77;;
12956;SDS011;6543;48.836;10.092;2023-08-08T02:48:12;4.10;;;3.30;;
12956;SDS011;6543;48.836;10.092;2023-08-08T02:50:41;8.17;;;3.10;;
12956;SDS011;6543;48.836;10.092;2023-08-08T02:53:07;4.70;;;2.90;;
12956;SDS011;6543;48.836;10.092;2023-08-08T02:55:35;5.13;;;2.50;;
12956;SDS011;6543;48.836;10.092;2023-08-08T02:58:02;2.83;;;2.03;;
12956;SDS011;6543;48.836;10.092;2023-08-08T03:00:29;2.60;;;1.47;;
12956;SDS011;6543;48.836;10.092;2023-08-08T03:02:56;2.10;;;1.20;;
12956;SDS011;6543;48.836;10.092;2023-08-08T03:05:23;5.67;;;2.00;;
12956;SDS011;6543;48.836;10.092;2023-08-08T03:07:51;14.07;;;5.63;;
12956;SDS011;6543;48.836;10.092;2023-08-08T03:10:18;11.70;;;6.40;;
12956;SDS011;6543;48.836;10.092;2023-08-08T03:12:45;14.83;;;8.30;;
12956;SDS011;6543;48.836;10.092;2023-08-08T03:15:12;16.63;;;9.20;;
12956;SDS011;6543;48.836;10.092;2023-08-08T03:17:39;14.60;;;7.60;;
12956;SDS011;6543;48.836;10.092;2023-08-08T03:20:06;13.23;;;6.40;;
12956;SDS011;6543;48.836;10.092;2023-08-08T03:22:35;10.23;;;6.33;;
12956;SDS011;6543;48.836;10.092;2023-08-08T03:25:04;15.50;;;7.53;;
12956;SDS011;6543;48.836;10.092;2023-08-08T03:27:31;12.13;;;5.80;;
12956;SDS011;6543;48.836;10.092;2023-08-08T03:29:58;11.83;;;5.40;;
12956;SDS011;6543;48.836;10.092;2023-08-08T03:32:26;8.07;;;4.07;;
12956;SDS011;6543;48.836;10.092;2023-08-08T03:34:54;7.47;;;4.10;;
12956;SDS011;6543;48.836;10.092;2023-08-08T03:37:21;7.70;;;4.00;;
12956;SDS011;6543;48.836;10.092;2023-08-08T03:39:48;5.83;;;3.90;;
12956;SDS011;6543;48.836;10.092;2023-08-08T03:42:16;5.40;;;3.30;;
12956;SDS011;6543;48.836;10.092;2023-08-08T03:44:43;6.07;;;3.93;;
12956;SDS011;6543;48.836;10.092;2023-08-08T03:47:10;8.03;;;3.00;;
12956;SDS011;6543;48.836;10.092;2023-08-08T03:49:37;4.23;;;2.83;;
12956;SDS011;6543;48.836;10.092;2023-08-08T03:52:04;4.30;;;3.00;;
12956;SDS011;6543;48.836;10.092;2023-08-08T03:54:31;3.27;;;2.40;;
12956;SDS011;6543;48.836;10.092;2023-08-08T03:56:58;2.67;;;2.33;;
12956;SDS011;6543;48.836;10.092;2023-08-08T03:59:27;5.63;;;2.40;;
12956;SDS011;6543;48.836;10.092;2023-08-08T04:01:54;4.60;;;2.37;;
12956;SDS011;6543;48.836;10.092;2023-08-08T04:04:21;3.03;;;1.97;;
12956;SDS011;6543;48.836;10.092;2023-08-08T04:06:48;2.87;;;2.60;;
12956;SDS011;6543;48.836;10.092;2023-08-08T04:09:14;4.40;;;2.30;;
12956;SDS011;6543;48.836;10.092;2023-08-08T04:11:41;7.80;;;2.57;;
12956;SDS011;6543;48.836;10.092;2023-08-08T04:14:08;5.67;;;2.00;;
12956;SDS011;6543;48.836;10.092;2023-08-08T04:16:38;4.50;;;2.50;;
12956;SDS011;6543;48.836;10.092;2023-08-08T04:19:05;5.67;;;2.27;;
12956;SDS011;6543;48.836;10.092;2023-08-08T04:21:32;3.53;;;2.03;;
12956;SDS011;6543;48.836;10.092;2023-08-08T04:23:58;2.20;;;1.90;;
12956;SDS011;6543;48.836;10.092;2023-08-08T04:26:26;5.93;;;2.00;;
12956;SDS011;6543;48.836;10.092;2023-08-08T04:28:53;4.10;;;2.23;;
12956;SDS011;6543;48.836;10.092;2023-08-08T04:31:20;6.10;;;2.83;;
12956;SDS011;6543;48.836;10.092;2023-08-08T04:33:50;3.50;;;2.50;;
12956;SDS011;6543;48.836;10.092;2023-08-08T04:36:20;3.67;;;2.40;;
12956;SDS011;6543;48.836;10.092;2023-08-08T04:38:47;6.57;;;2.80;;
12956;SDS011;6543;48.836;10.092;2023-08-08T04:41:14;4.50;;;2.00;;
12956;SDS011;6543;48.836;10.092;2023-08-08T04:43:41;2.90;;;2.37;;
12956;SDS011;6543;48.836;10.092;2023-08-08T04:46:08;5.80;;;3.20;;
12956;SDS011;6543;48.836;10.092;2023-08-08T04:48:35;5.17;;;2.97;;
12956;SDS011;6543;48.836;10.092;2023-08-08T04:53:32;2.93;;;2.20;;
12956;SDS011;6543;48.836;10.092;2023-08-08T04:55:59;4.13;;;1.87;;
12956;SDS011;6543;48.836;10.092;2023-08-08T04:58:26;4.83;;;1.77;;
12956;SDS011;6543;48.836;10.092;2023-08-08T05:00:53;4.47;;;2.97;;
12956;SDS011;6543;48.836;10.092;2023-08-08T05:03:20;4.47;;;2.60;;
12956;SDS011;6543;48.836;10.092;2023-08-08T05:05:47;3.17;;;1.43;;
12956;SDS011;6543;48.836;10.092;2023-08-08T05:08:16;5.27;;;1.70;;
12956;SDS011;6543;48.836;10.092;2023-08-08T05:10:43;8.97;;;1.60;;
12956;SDS011;6543;48.836;10.092;2023-08-08T05:13:09;5.00;;;1.70;;
12956;SDS011;6543;48.836;10.092;2023-08-08T05:15:36;5.73;;;1.60;;
12956;SDS011;6543;48.836;10.092;2023-08-08T05:18:03;3.47;;;1.50;;
12956;SDS011;6543;48.836;10.092;2023-08-08T05:20:30;2.20;;;1.60;;
12956;SDS011;6543;48.836;10.092;2023-08-08T05:22:57;1.30;;;1.20;;
12956;SDS011;6543;48.836;10.092;2023-08-08T05:25:25;5.33;;;2.27;;
12956;SDS011;6543;48.836;10.092;2023-08-08T05:27:52;5.30;;;1.70;;
12956;SDS011;6543;48.836;10.092;2023-08-08T05:30:19;2.80;;;1.70;;
12956;SDS011;6543;48.836;10.092;2023-08-08T05:32:46;5.43;;;1.60;;
12956;SDS011;6543;48.836;10.092;2023-08-08T05:35:13;3.30;;;1.53;;
12956;SDS011;6543;48.836;10.092;2023-08-08T05:37:40;2.23;;;1.80;;
12956;SDS011;6543;48.836;10.092;2023-08-08T05:40:07;1.97;;;1.40;;
12956;SDS011;6543;48.836;10.092;2023-08-08T05:42:36;6.07;;;1.90;;
12956;SDS011;6543;48.836;10.092;2023-08-08T05:45:04;2.70;;;1.80;;
12956;SDS011;6543;48.836;10.092;2023-08-08T05:47:31;2.93;;;1.93;;
12956;SDS011;6543;48.836;10.092;2023-08-08T05:49:58;5.37;;;2.43;;
12956;SDS011;6543;48.836;10.092;2023-08-08T05:52:25;6.97;;;2.93;;
12956;SDS011;6543;48.836;10.092;2023-08-08T05:54:52;4.23;;;2.47;;
12956;SDS011;6543;48.836;10.092;2023-08-08T05:57:19;3.33;;;2.23;;
12956;SDS011;6543;48.836;10.092;2023-08-08T05:59:47;6.17;;;2.37;;
12956;SDS011;6543;48.836;10.092;2023-08-08T06:02:15;7.63;;;2.20;;
12956;SDS011;6543;48.836;10.092;2023-08-08T06:04:42;6.77;;;2.00;;
12956;SDS011;6543;48.836;10.092;2023-08-08T06:07:10;3.73;;;2.00;;
12956;SDS011;6543;48.836;10.092;2023-08-08T06:09:37;5.93;;;2.47;;
12956;SDS011;6543;48.836;10.092;2023-08-08T06:12:04;8.30;;;2.60;;
12956;SDS011;6543;48.836;10.092;2023-08-08T06:14:31;5.73;;;2.80;;
12956;SDS011;6543;48.836;10.092;2023-08-08T06:17:00;7.17;;;3.07;;
12956;SDS011;6543;48.836;10.092;2023-08-08T06:19:26;6.93;;;4.63;;
12956;SDS011;6543;48.836;10.092;2023-08-08T06:21:53;5.03;;;2.63;;
12956;SDS011;6543;48.836;10.092;2023-08-08T06:24:20;3.47;;;1.83;;
12956;SDS011;6543;48.836;10.092;2023-08-08T06:26:47;5.37;;;1.70;;
12956;SDS011;6543;48.836;10.092;2023-08-08T06:29:14;3.40;;;2.00;;
12956;SDS011;6543;48.836;10.092;2023-08-08T06:31:41;4.97;;;2.23;;
12956;SDS011;6543;48.836;10.092;2023-08-08T06:34:09;6.43;;;1.83;;
12956;SDS011;6543;48.836;10.092;2023-08-08T06:36:36;3.13;;;1.70;;
12956;SDS011;6543;48.836;10.092;2023-08-08T06:39:03;1.97;;;1.30;;
12956;SDS011;6543;48.836;10.092;2023-08-08T06:41:30;1.43;;;1.30;;
12956;SDS011;6543;48.836;10.092;2023-08-08T06:43:57;3.70;;;1.37;;
12956;SDS011;6543;48.836;10.092;2023-08-08T06:46:24;1.03;;;0.80;;
12956;SDS011;6543;48.836;10.092;2023-08-08T06:48:51;1.47;;;1.00;;
12956;SDS011;6543;48.836;10.092;2023-08-08T06:51:23;3.30;;;0.97;;
12956;SDS011;6543;48.836;10.092;2023-08-08T06:53:50;1.93;;;1.07;;
12956;SDS011;6543;48.836;10.092;2023-08-08T06:56:17;4.07;;;1.00;;
12956;SDS011;6543;48.836;10.092;2023-08-08T06:58:44;2.47;;;0.90;;
12956;SDS011;6543;48.836;10.092;2023-08-08T07:01:11;4.47;;;1.10;;
12956;SDS011;6543;48.836;10.092;2023-08-08T07:03:38;0.67;;;0.67;;
12956;SDS011;6543;48.836;10.092;2023-08-08T07:06:05;2.10;;;1.10;;
12956;SDS011;6543;48.836;10.092;2023-08-08T07:08:33;1.20;;;0.73;;
12956;SDS011;6543;48.836;10.092;2023-08-08T07:11:00;13.07;;;1.23;;
12956;SDS011;6543;48.836;10.092;2023-08-08T07:13:27;1.20;;;1.10;;
12956;SDS011;6543;48.836;10.092;2023-08-08T07:15:54;1.93;;;0.87;;
12956;SDS011;6543;48.836;10.092;2023-08-08T07:18:21;1.77;;;1.00;;
12956;SDS011;6543;48.836;10.092;2023-08-08T07:20:48;1.43;;;1.00;;
12956;SDS011;6543;48.836;10.092;2023-08-08T07:23:14;2.03;;;0.90;;
12956;SDS011;6543;48.836;10.092;2023-08-08T07:25:43;1.33;;;1.00;;
12956;SDS011;6543;48.836;10.092;2023-08-08T07:28:11;4.17;;;1.20;;
12956;SDS011;6543;48.836;10.092;2023-08-08T07:30:39;1.90;;;1.10;;
12956;SDS011;6543;48.836;10.092;2023-08-08T07:33:06;5.53;;;1.50;;
12956;SDS011;6543;48.836;10.092;2023-08-08T07:35:33;2.37;;;0.97;;
12956;SDS011;6543;48.836;10.092;2023-08-08T07:38:00;1.73;;;1.27;;
12956;SDS011;6543;48.836;10.092;2023-08-08T07:40:27;2.03;;;1.23;;
12956;SDS011;6543;48.836;10.092;2023-08-08T07:42:55;1.33;;;1.20;;
12956;SDS011;6543;48.836;10.092;2023-08-08T07:45:22;4.97;;;1.30;;
12956;SDS011;6543;48.836;10.092;2023-08-08T07:47:49;1.67;;;1.37;;
12956;SDS011;6543;48.836;10.092;2023-08-08T07:50:16;1.30;;;1.20;;
12956;SDS011;6543;48.836;10.092;2023-08-08T07:52:43;4.80;;;1.03;;
12956;SDS011;6543;48.836;10.092;2023-08-08T07:55:10;2.10;;;1.07;;
12956;SDS011;6543;48.836;10.092;2023-08-08T07:57:37;1.37;;;1.20;;
12956;SDS011;6543;48.836;10.092;2023-08-08T08:00:06;1.80;;;0.97;;
12956;SDS011;6543;48.836;10.092;2023-08-08T08:02:34;2.60;;;0.87;;
12956;SDS011;6543;48.836;10.092;2023-08-08T08:05:01;1.37;;;0.97;;
12956;SDS011;6543;48.836;10.092;2023-08-08T08:07:30;3.07;;;1.30;;
12956;SDS011;6543;48.836;10.092;2023-08-08T08:09:57;1.07;;;0.97;;
12956;SDS011;6543;48.836;10.092;2023-08-08T08:12:24;1.83;;;1.03;;
12956;SDS011;6543;48.836;10.092;2023-08-08T08:14:51;4.23;;;1.20;;
12956;SDS011;6543;48.836;10.092;2023-08-08T08:17:19;3.23;;;1.10;;
12956;SDS011;6543;48.836;10.092;2023-08-08T08:19:46;2.37;;;1.30;;
12956;SDS011;6543;48.836;10.092;2023-08-08T08:22:13;4.40;;;1.37;;
12956;SDS011;6543;48.836;10.092;2023-08-08T08:24:40;3.17;;;1.60;;
12956;SDS011;6543;48.836;10.092;2023-08-08T08:27:06;2.20;;;1.67;;
12956;SDS011;6543;48.836;10.092;2023-08-08T08:29:33;2.03;;;0.93;;
12956;SDS011;6543;48.836;10.092;2023-08-08T08:32:00;2.03;;;1.23;;
12956;SDS011;6543;48.836;10.092;2023-08-08T08:34:28;2.67;;;1.10;;
12956;SDS011;6543;48.836;10.092;2023-08-08T08:36:55;5.00;;;1.30;;
12956;SDS011;6543;48.836;10.092;2023-08-08T08:39:22;3.83;;;1.40;;
12956;SDS011;6543;48.836;10.092;2023-08-08T08:41:49;3.17;;;1.40;;
12956;SDS011;6543;48.836;10.092;2023-08-08T08:44:20;4.50;;;1.20;;
12956;SDS011;6543;48.836;10.092;2023-08-08T08:46:48;4.50;;;1.20;;
12956;SDS011;6543;48.836;10.092;2023-08-08T08:49:18;3.60;;;1.20;;
12956;SDS011;6543;48.836;10.092;2023-08-08T08:51:49;4.30;;;0.80;;
12956;SDS011;6543;48.836;10.092;2023-08-08T08:54:16;2.13;;;0.90;;
12956;SDS011;6543;48.836;10.092;2023-08-08T08:56:44;1.50;;;0.90;;
12956;SDS011;6543;48.836;10.092;2023-08-08T08:59:11;1.20;;;1.10;;
12956;SDS011;6543;48.836;10.092;2023-08-08T09:01:38;1.60;;;1.20;;
12956;SDS011;6543;48.836;10.092;2023-08-08T09:04:05;2.20;;;1.07;;
12956;SDS011;6543;48.836;10.092;2023-08-08T09:06:33;4.50;;;1.07;;
12956;SDS011;6543;48.836;10.092;2023-08-08T09:09:05;2.27;;;1.43;;
12956;SDS011;6543;48.836;10.092;2023-08-08T09:11:32;1.20;;;1.10;;
12956;SDS011;6543;48.836;10.092;2023-08-08T09:13:59;1.53;;;1.27;;
12956;SDS011;6543;48.836;10.092;2023-08-08T09:16:27;1.47;;;1.20;;
12956;SDS011;6543;48.836;10.092;2023-08-08T09:18:55;2.77;;;1.20;;
12956;SDS011;6543;48.836;10.092;2023-08-08T09:21:22;5.43;;;1.23;;
12956;SDS011;6543;48.836;10.092;2023-08-08T09:23:48;2.27;;;1.13;;
12956;SDS011;6543;48.836;10.092;2023-08-08T09:26:17;3.07;;;1.10;;
12956;SDS011;6543;48.836;10.092;2023-08-08T09:28:43;1.87;;;1.00;;
12956;SDS011;6543;48.836;10.092;2023-08-08T09:31:11;9.65;;;1.38;;
12956;SDS011;6543;48.836;10.092;2023-08-08T09:33:38;2.42;;;1.17;;
12956;SDS011;6543;48.836;10.092;2023-08-08T09:36:05;3.45;;;1.13;;
12956;SDS011;6543;48.836;10.092;2023-08-08T09:38:32;2.55;;;1.23;;
12956;SDS011;6543;48.836;10.092;2023-08-08T09:40:59;3.05;;;1.17;;
12956;SDS011;6543;48.836;10.092;2023-08-08T09:43:28;2.17;;;0.88;;
12956;SDS011;6543;48.836;10.092;2023-08-08T09:45:55;2.80;;;1.17;;
12956;SDS011;6543;48.836;10.092;2023-08-08T09:48:22;1.63;;;1.08;;
12956;SDS011;6543;48.836;10.092;2023-08-08T09:50:55;3.63;;;1.20;;
12956;SDS011;6543;48.836;10.092;2023-08-08T09:53:24;4.22;;;1.10;;
12956;SDS011;6543;48.836;10.092;2023-08-08T09:55:52;4.78;;;1.70;;
12956;SDS011;6543;48.836;10.092;2023-08-08T09:58:20;2.00;;;1.30;;
12956;SDS011;6543;48.836;10.092;2023-08-08T10:00:49;1.48;;;1.20;;
12956;SDS011;6543;48.836;10.092;2023-08-08T10:03:16;2.67;;;1.33;;
12956;SDS011;6543;48.836;10.092;2023-08-08T10:05:44;2.83;;;1.15;;
12956;SDS011;6543;48.836;10.092;2023-08-08T10:08:11;2.50;;;1.40;;
12956;SDS011;6543;48.836;10.092;2023-08-08T10:10:38;1.25;;;1.15;;
12956;SDS011;6543;48.836;10.092;2023-08-08T10:13:05;2.80;;;1.77;;
12956;SDS011;6543;48.836;10.092;2023-08-08T10:15:36;3.25;;;1.55;;
12956;SDS011;6543;48.836;10.092;2023-08-08T10:18:05;2.15;;;1.05;;
12956;SDS011;6543;48.836;10.092;2023-08-08T10:20:32;2.37;;;1.40;;
12956;SDS011;6543;48.836;10.092;2023-08-08T10:23:02;1.40;;;1.00;;
12956;SDS011;6543;48.836;10.092;2023-08-08T10:25:30;6.53;;;1.17;;
12956;SDS011;6543;48.836;10.092;2023-08-08T10:28:04;2.22;;;1.42;;
12956;SDS011;6543;48.836;10.092;2023-08-08T10:30:41;4.82;;;1.38;;
12956;SDS011;6543;48.836;10.092;2023-08-08T10:33:16;1.90;;;1.10;;
12956;SDS011;6543;48.836;10.092;2023-08-08T10:35:54;2.80;;;1.40;;
12956;SDS011;6543;48.836;10.092;2023-08-08T10:38:23;1.90;;;0.90;;
12956;SDS011;6543;48.836;10.092;2023-08-08T10:40:55;2.13;;;1.38;;
12956;SDS011;6543;48.836;10.092;2023-08-08T10:43:27;1.27;;;0.82;;
12956;SDS011;6543;48.836;10.092;2023-08-08T10:45:58;2.28;;;1.08;;
12956;SDS011;6543;48.836;10.092;2023-08-08T10:48:28;2.88;;;1.40;;
12956;SDS011;6543;48.836;10.092;2023-08-08T10:50:55;2.47;;;1.25;;
12956;SDS011;6543;48.836;10.092;2023-08-08T10:53:25;3.42;;;1.30;;
12956;SDS011;6543;48.836;10.092;2023-08-08T10:55:59;3.17;;;1.40;;
12956;SDS011;6543;48.836;10.092;2023-08-08T11:01:14;2.72;;;1.10;;
12956;SDS011;6543;48.836;10.092;2023-08-08T11:03:43;2.75;;;1.45;;
12956;SDS011;6543;48.836;10.092;2023-08-08T11:06:11;2.17;;;1.30;;
12956;SDS011;6543;48.836;10.092;2023-08-08T11:08:38;1.52;;;0.93;;
12956;SDS011;6543;48.836;10.092;2023-08-08T11:11:05;2.95;;;1.30;;
12956;SDS011;6543;48.836;10.092;2023-08-08T11:13:33;3.35;;;1.30;;
12956;SDS011;6543;48.836;10.092;2023-08-08T11:16:00;2.50;;;1.05;;
12956;SDS011;6543;48.836;10.092;2023-08-08T11:18:27;2.15;;;1.30;;
12956;SDS011;6543;48.836;10.092;2023-08-08T11:20:56;1.42;;;0.95;;
12956;SDS011;6543;48.836;10.092;2023-08-08T11:23:23;2.90;;;1.08;;
12956;SDS011;6543;48.836;10.092;2023-08-08T11:25:50;2.90;;;1.35;;
12956;SDS011;6543;48.836;10.092;2023-08-08T11:28:16;2.97;;;1.30;;
12956;SDS011;6543;48.836;10.092;2023-08-08T11:30:45;1.75;;;1.00;;
12956;SDS011;6543;48.836;10.092;2023-08-08T11:33:13;2.88;;;1.00;;
12956;SDS011;6543;48.836;10.092;2023-08-08T11:35:44;2.50;;;1.35;;
12956;SDS011;6543;48.836;10.092;2023-08-08T11:38:15;1.13;;;1.02;;
12956;SDS011;6543;48.836;10.092;2023-08-08T11:40:43;2.95;;;1.27;;
12956;SDS011;6543;48.836;10.092;2023-08-08T11:43:10;1.60;;;1.10;;
12956;SDS011;6543;48.836;10.092;2023-08-08T11:45:38;1.88;;;1.13;;
12956;SDS011;6543;48.836;10.092;2023-08-08T11:48:07;1.90;;;1.08;;
12956;SDS011;6543;48.836;10.092;2023-08-08T11:50:36;3.20;;;1.38;;
12956;SDS011;6543;48.836;10.092;2023-08-08T11:53:04;2.15;;;1.42;;
12956;SDS011;6543;48.836;10.092;2023-08-08T11:55:32;2.25;;;1.20;;
12956;SDS011;6543;48.836;10.092;2023-08-08T11:57:59;2.78;;;1.83;;
12956;SDS011;6543;48.836;10.092;2023-08-08T12:00:27;2.75;;;1.50;;
12956;SDS011;6543;48.836;10.092;2023-08-08T12:02:56;2.47;;;1.30;;
12956;SDS011;6543;48.836;10.092;2023-08-08T12:05:23;0.95;;;0.95;;
12956;SDS011;6543;48.836;10.092;2023-08-08T12:07:51;2.03;;;1.30;;
12956;SDS011;6543;48.836;10.092;2023-08-08T12:10:19;4.57;;;1.15;;
12956;SDS011;6543;48.836;10.092;2023-08-08T12:12:52;5.85;;;1.48;;
12956;SDS011;6543;48.836;10.092;2023-08-08T12:15:20;2.63;;;1.13;;
12956;SDS011;6543;48.836;10.092;2023-08-08T12:17:47;1.25;;;1.05;;
12956;SDS011;6543;48.836;10.092;2023-08-08T12:20:14;1.20;;;1.10;;
12956;SDS011;6543;48.836;10.092;2023-08-08T12:22:41;1.33;;;1.10;;
12956;SDS011;6543;48.836;10.092;2023-08-08T12:25:08;4.85;;;1.10;;
12956;SDS011;6543;48.836;10.092;2023-08-08T12:27:35;2.40;;;1.00;;
12956;SDS011;6543;48.836;10.092;2023-08-08T12:30:06;2.33;;;1.20;;
12956;SDS011;6543;48.836;10.092;2023-08-08T12:32:33;2.35;;;1.45;;
12956;SDS011;6543;48.836;10.092;2023-08-08T12:35:00;1.20;;;1.10;;
12956;SDS011;6543;48.836;10.092;2023-08-08T12:37:27;1.85;;;1.42;;
12956;SDS011;6543;48.836;10.092;2023-08-08T12:39:54;2.45;;;1.20;;
12956;SDS011;6543;48.836;10.092;2023-08-08T12:42:21;2.25;;;1.33;;
12956;SDS011;6543;48.836;10.092;2023-08-08T12:44:48;4.40;;;1.33;;
12956;SDS011;6543;48.836;10.092;2023-08-08T12:47:17;2.45;;;1.23;;
12956;SDS011;6543;48.836;10.092;2023-08-08T12:49:45;1.70;;;1.27;;
12956;SDS011;6543;48.836;10.092;2023-08-08T12:52:12;1.58;;;1.00;;
12956;SDS011;6543;48.836;10.092;2023-08-08T12:54:40;1.42;;;1.10;;
12956;SDS011;6543;48.836;10.092;2023-08-08T12:57:06;2.20;;;0.90;;
12956;SDS011;6543;48.836;10.092;2023-08-08T12:59:34;2.90;;;1.10;;
12956;SDS011;6543;48.836;10.092;2023-08-08T13:02:00;2.60;;;1.40;;
12956;SDS011;6543;48.836;10.092;2023-08-08T13:04:29;4.97;;;1.40;;
12956;SDS011;6543;48.836;10.092;2023-08-08T13:06:55;6.22;;;1.30;;
12956;SDS011;6543;48.836;10.092;2023-08-08T13:09:22;2.25;;;1.25;;
12956;SDS011;6543;48.836;10.092;2023-08-08T13:11:49;1.85;;;1.08;;
12956;SDS011;6543;48.836;10.092;2023-08-08T13:14:16;0.80;;;0.80;;
12956;SDS011;6543;48.836;10.092;2023-08-08T13:16:43;1.13;;;0.93;;
12956;SDS011;6543;48.836;10.092;2023-08-08T13:19:10;1.90;;;1.05;;
12956;SDS011;6543;48.836;10.092;2023-08-08T13:21:39;2.60;;;1.05;;
12956;SDS011;6543;48.836;10.092;2023-08-08T13:24:06;2.70;;;1.30;;
12956;SDS011;6543;48.836;10.092;2023-08-08T13:26:34;2.10;;;1.30;;
12956;SDS011;6543;48.836;10.092;2023-08-08T13:29:01;1.65;;;1.10;;
12956;SDS011;6543;48.836;10.092;2023-08-08T13:31:28;2.17;;;1.20;;
12956;SDS011;6543;48.836;10.092;2023-08-08T13:33:55;2.45;;;1.00;;
12956;SDS011;6543;48.836;10.092;2023-08-08T13:36:22;1.25;;;1.13;;
12956;SDS011;6543;48.836;10.092;2023-08-08T13:38:50;2.15;;;1.35;;
12956;SDS011;6543;48.836;10.092;2023-08-08T13:41:17;2.65;;;1.20;;
12956;SDS011;6543;48.836;10.092;2023-08-08T13:43:44;1.88;;;1.17;;
12956;SDS011;6543;48.836;10.092;2023-08-08T13:46:11;6.45;;;1.20;;
12956;SDS011;6543;48.836;10.092;2023-08-08T13:48:38;2.13;;;1.27;;
12956;SDS011;6543;48.836;10.092;2023-08-08T13:51:05;1.77;;;0.90;;
12956;SDS011;6543;48.836;10.092;2023-08-08T13:53:32;5.57;;;1.15;;
12956;SDS011;6543;48.836;10.092;2023-08-08T13:56:01;3.88;;;1.20;;
12956;SDS011;6543;48.836;10.092;2023-08-08T13:58:28;5.28;;;1.63;;
12956;SDS011;6543;48.836;10.092;2023-08-08T14:00:54;3.05;;;1.40;;
12956;SDS011;6543;48.836;10.092;2023-08-08T14:03:21;4.18;;;1.08;;
12956;SDS011;6543;48.836;10.092;2023-08-08T14:05:49;3.65;;;1.17;;
12956;SDS011;6543;48.836;10.092;2023-08-08T14:08:17;3.05;;;1.35;;
12956;SDS011;6543;48.836;10.092;2023-08-08T14:10:45;2.17;;;1.30;;
12956;SDS011;6543;48.836;10.092;2023-08-08T14:13:13;4.82;;;1.23;;
12956;SDS011;6543;48.836;10.092;2023-08-08T14:15:41;2.60;;;1.45;;
12956;SDS011;6543;48.836;10.092;2023-08-08T14:18:08;1.40;;;1.30;;
12956;SDS011;6543;48.836;10.092;2023-08-08T14:20:35;1.60;;;1.35;;
12956;SDS011;6543;48.836;10.092;2023-08-08T14:23:03;5.10;;;1.35;;
12956;SDS011;6543;48.836;10.092;2023-08-08T14:25:30;2.97;;;1.55;;
12956;SDS011;6543;48.836;10.092;2023-08-08T14:27:57;1.80;;;1.15;;
12956;SDS011;6543;48.836;10.092;2023-08-08T14:30:26;1.48;;;1.30;;
12956;SDS011;6543;48.836;10.092;2023-08-08T14:32:53;1.40;;;1.20;;
12956;SDS011;6543;48.836;10.092;2023-08-08T14:35:20;2.90;;;1.20;;
12956;SDS011;6543;48.836;10.092;2023-08-08T14:37:47;1.85;;;1.27;;
12956;SDS011;6543;48.836;10.092;2023-08-08T14:40:14;1.92;;;1.50;;
12956;SDS011;6543;48.836;10.092;2023-08-08T14:42:41;2.38;;;1.10;;
12956;SDS011;6543;48.836;10.092;2023-08-08T14:45:08;1.63;;;1.20;;
12956;SDS011;6543;48.836;10.092;2023-08-08T14:47:37;2.80;;;1.10;;
12956;SDS011;6543;48.836;10.092;2023-08-08T14:50:04;1.48;;;0.98;;
12956;SDS011;6543;48.836;10.092;2023-08-08T14:52:33;3.25;;;1.10;;
12956;SDS011;6543;48.836;10.092;2023-08-08T14:55:00;2.15;;;1.05;;